createdAt,value
2018-07-20T00:02:04.680Z,49.50
2018-07-20T00:04:33.383Z,50.10
2018-07-20T00:07:02.018Z,49.50
2018-07-20T00:09:30.435Z,50.10
2018-07-20T00:11:58.951Z,49.90
2018-07-20T00:14:27.354Z,50.10
2018-07-20T00:16:58.144Z,49.80
2018-07-20T00:19:26.582Z,49.70
2018-07-20T00:21:55.002Z,52.10
2018-07-20T00:24:23.440Z,52.70
2018-07-20T00:26:51.903Z,52.90
2018-07-20T00:29:20.293Z,54.10
2018-07-20T00:31:48.804Z,52.30
2018-07-20T00:34:17.560Z,52.30
2018-07-20T00:36:46.253Z,52.20
2018-07-20T00:39:14.819Z,51.20
2018-07-20T00:41:43.269Z,51.30
2018-07-20T00:44:11.649Z,50.30
2018-07-20T00:46:40.989Z,50.30
2018-07-20T00:49:10.810Z,51.40
2018-07-20T00:51:39.910Z,50.80
2018-07-20T00:54:09.217Z,50.10
2018-07-20T00:56:38.298Z,49.50
2018-07-20T00:59:06.810Z,50.40
2018-07-20T01:01:35.517Z,48.70
2018-07-20T01:04:04.182Z,49.50
2018-07-20T01:06:32.642Z,49.80
2018-07-20T01:09:01.171Z,50.50
2018-07-20T01:11:29.669Z,50.80
2018-07-20T01:13:58.231Z,49.10
2018-07-20T01:16:26.684Z,50.00
2018-07-20T01:18:55.262Z,49.90
2018-07-20T01:21:23.727Z,50.30
2018-07-20T01:23:52.330Z,49.60
2018-07-20T01:26:20.743Z,50.10
2018-07-20T01:28:49.273Z,50.90
2018-07-20T01:31:17.676Z,51.60
2018-07-20T01:33:46.205Z,51.80
2018-07-20T01:36:14.596Z,52.20
2018-07-20T01:38:43.060Z,53.90
2018-07-20T01:41:12.599Z,54.20
2018-07-20T01:43:41.745Z,54.90
2018-07-20T01:46:10.942Z,54.70
2018-07-20T01:48:39.698Z,54.60
2018-07-20T01:51:08.142Z,55.00
2018-07-20T01:53:36.758Z,55.10
2018-07-20T01:56:05.610Z,54.40
2018-07-20T01:58:34.142Z,55.10
2018-07-20T02:01:02.947Z,55.00
2018-07-20T02:03:31.664Z,54.10
2018-07-20T02:06:00.076Z,53.90
2018-07-20T02:08:28.595Z,55.80
2018-07-20T02:10:59.232Z,54.80
2018-07-20T02:13:27.851Z,55.70
2018-07-20T02:15:56.912Z,55.90
2018-07-20T02:19:28.691Z,54.80
2018-07-20T02:21:57.255Z,54.90
2018-07-20T02:24:25.688Z,55.30
2018-07-20T02:26:54.178Z,55.10
2018-07-20T02:29:22.737Z,55.50
2018-07-20T02:31:51.351Z,54.20
2018-07-20T02:34:19.725Z,51.80
2018-07-20T02:36:48.249Z,55.20
2018-07-20T02:39:16.630Z,54.90
2018-07-20T02:41:46.188Z,53.70
2018-07-20T02:44:14.607Z,55.60
2018-07-20T02:46:43.156Z,54.60
2018-07-20T02:49:12.030Z,55.50
2018-07-20T02:51:42.111Z,56.00
2018-07-20T02:54:11.161Z,56.40
2018-07-20T02:56:40.007Z,55.00
2018-07-20T02:59:08.404Z,55.70
2018-07-20T03:01:36.854Z,55.10
2018-07-20T03:04:05.485Z,56.10
2018-07-20T03:06:34.030Z,55.90
2018-07-20T03:09:02.459Z,57.00
2018-07-20T03:11:31.380Z,56.70
2018-07-20T03:13:59.765Z,56.20
2018-07-20T03:16:28.256Z,55.40
2018-07-20T03:18:56.648Z,55.30
2018-07-20T03:21:26.097Z,55.00
2018-07-20T03:23:54.532Z,56.00
2018-07-20T03:26:23.066Z,55.00
2018-07-20T03:28:51.502Z,55.60
2018-07-20T03:31:20.085Z,55.70
2018-07-20T03:33:48.446Z,56.40
2018-07-20T03:36:16.864Z,56.00
2018-07-20T03:38:45.275Z,56.80
2018-07-20T03:41:14.770Z,55.80
2018-07-20T03:43:43.181Z,56.10
2018-07-20T03:46:12.038Z,54.70
2018-07-20T03:48:40.989Z,56.60
2018-07-20T03:51:10.276Z,55.90
2018-07-20T03:53:39.196Z,55.20
2018-07-20T03:56:08.013Z,56.40
2018-07-20T03:58:36.451Z,56.90
2018-07-20T04:01:05.003Z,57.20
2018-07-20T04:03:33.444Z,57.10
2018-07-20T04:06:01.891Z,56.20
2018-07-20T04:08:30.367Z,56.60
2018-07-20T04:10:58.843Z,58.00
2018-07-20T04:13:27.292Z,57.80
2018-07-20T04:15:56.042Z,57.30
2018-07-20T04:18:24.414Z,56.60
2018-07-20T04:20:53.865Z,56.00
2018-07-20T04:23:22.560Z,57.10
2018-07-20T04:25:51.070Z,57.30
2018-07-20T04:28:19.453Z,57.70
2018-07-20T04:30:47.892Z,58.50
2018-07-20T04:33:16.405Z,57.40
2018-07-20T04:35:44.802Z,57.00
2018-07-20T04:38:13.627Z,57.80
2018-07-20T04:40:42.023Z,58.10
2018-07-20T04:43:11.153Z,57.30
2018-07-20T04:45:40.166Z,58.10
2018-07-20T04:48:08.622Z,57.80
2018-07-20T04:50:37.185Z,58.50
2018-07-20T04:53:06.022Z,58.70
2018-07-20T04:55:34.637Z,58.30
2018-07-20T04:58:03.019Z,58.70
2018-07-20T05:00:31.417Z,59.30
2018-07-20T05:02:59.872Z,59.40
2018-07-20T05:05:28.189Z,59.00
2018-07-20T05:07:56.680Z,60.00
2018-07-20T05:10:25.107Z,60.20
2018-07-20T05:12:54.400Z,60.50
2018-07-20T05:15:22.851Z,60.00
2018-07-20T05:17:51.307Z,60.60
2018-07-20T05:20:19.685Z,60.00
2018-07-20T05:22:48.056Z,60.20
2018-07-20T05:25:16.494Z,60.00
2018-07-20T05:27:45.352Z,60.40
2018-07-20T05:30:13.717Z,60.00
2018-07-20T05:32:42.130Z,59.50
2018-07-20T05:35:11.309Z,58.90
2018-07-20T05:37:40.018Z,57.80
2018-07-20T05:40:08.522Z,58.40
2018-07-20T05:42:36.986Z,58.40
2018-07-20T05:45:05.374Z,58.40
2018-07-20T05:47:34.214Z,58.00
2018-07-20T05:50:02.978Z,57.80
2018-07-20T05:52:31.461Z,57.50
2018-07-20T05:54:59.822Z,56.80
2018-07-20T05:57:28.325Z,57.60
2018-07-20T05:59:56.693Z,58.20
2018-07-20T06:02:25.150Z,57.90
2018-07-20T06:04:53.552Z,57.50
2018-07-20T06:07:21.960Z,57.50
2018-07-20T06:09:50.470Z,57.40
2018-07-20T06:12:19.044Z,58.40
2018-07-20T07:39:45.543Z,58.30
2018-07-20T07:42:14.076Z,58.00
2018-07-20T07:44:42.770Z,57.90
2018-07-20T07:47:11.993Z,56.70
2018-07-20T07:49:41.128Z,57.00
2018-07-20T07:52:10.936Z,57.50
2018-07-20T07:54:39.667Z,57.90
2018-07-20T07:57:08.350Z,58.10
2018-07-20T07:59:36.731Z,58.20
2018-07-20T08:02:05.165Z,57.80
2018-07-20T08:04:33.641Z,57.90
2018-07-20T08:07:02.282Z,57.50
2018-07-20T08:09:30.897Z,56.30
2018-07-20T08:11:59.270Z,56.20
2018-07-20T08:14:27.662Z,55.50
2018-07-20T08:16:56.283Z,54.80
2018-07-20T08:19:24.682Z,55.00
2018-07-20T08:21:53.104Z,54.50
2018-07-20T08:24:21.519Z,54.40
2018-07-20T08:26:50.289Z,54.70
2018-07-20T08:29:19.170Z,55.00
2018-07-20T08:31:47.623Z,54.30
2018-07-20T08:34:16.315Z,54.40
2018-07-20T08:36:44.938Z,54.30
2018-07-20T08:39:13.670Z,54.30
2018-07-20T08:41:43.095Z,54.00
2018-07-20T08:44:11.514Z,54.40
2018-07-20T08:46:40.099Z,54.10
2018-07-20T08:49:08.647Z,54.60
2018-07-20T08:51:37.140Z,54.40
2018-07-20T08:54:05.621Z,54.80
2018-07-20T08:56:34.298Z,55.10
2018-07-20T08:59:02.694Z,54.50
2018-07-20T09:01:31.754Z,54.90
2018-07-20T09:04:00.138Z,55.80
2018-07-20T09:06:28.573Z,55.40
2018-07-20T09:08:56.896Z,55.00
2018-07-20T09:11:25.366Z,55.50
2018-07-20T09:13:53.975Z,53.90
2018-07-20T09:16:22.553Z,53.30
2018-07-20T09:18:51.165Z,53.50
2018-07-20T09:21:20.103Z,53.40
2018-07-20T09:23:48.962Z,53.60
2018-07-20T09:26:18.135Z,53.10
2018-07-20T09:28:46.725Z,53.00
2018-07-20T09:31:16.290Z,53.70
2018-07-20T09:33:45.191Z,52.90
2018-07-20T09:36:13.988Z,52.50
2018-07-20T09:38:42.763Z,52.00
2018-07-20T09:41:11.225Z,51.90
2018-07-20T09:43:39.695Z,52.30
2018-07-20T09:46:08.569Z,52.90
2018-07-20T09:48:36.905Z,51.80
2018-07-20T09:51:05.653Z,51.20
2018-07-20T09:53:34.134Z,51.90
2018-07-20T09:56:02.540Z,51.90
2018-07-20T09:58:30.964Z,51.90
2018-07-20T10:01:00.634Z,52.30
2018-07-20T10:03:29.350Z,51.70
2018-07-20T10:05:57.863Z,51.60
2018-07-20T10:08:26.249Z,51.30
2018-07-20T10:10:55.713Z,50.20
2018-07-20T10:13:24.141Z,50.90
2018-07-20T10:15:52.671Z,51.00
2018-07-20T10:18:21.142Z,50.70
2018-07-20T10:20:50.966Z,50.70
2018-07-20T10:23:19.647Z,50.50
2018-07-20T10:25:48.823Z,50.70
2018-07-20T10:28:17.575Z,51.10
2018-07-20T10:30:45.980Z,51.20
2018-07-20T10:33:14.495Z,49.60
2018-07-20T10:35:42.951Z,51.70
2018-07-20T10:38:11.356Z,51.00
2018-07-20T10:40:40.804Z,51.50
2018-07-20T10:43:09.239Z,51.20
2018-07-20T10:45:37.839Z,49.30
2018-07-20T10:48:06.210Z,50.20
2018-07-20T10:50:35.667Z,51.10
2018-07-20T10:53:04.076Z,51.10
2018-07-20T10:56:57.968Z,51.40
2018-07-20T10:59:26.822Z,51.20
2018-07-20T11:01:55.286Z,51.20
2018-07-20T11:04:23.663Z,51.20
2018-07-20T11:06:52.059Z,52.00
2018-07-20T11:09:20.427Z,52.20
2018-07-20T11:11:50.003Z,52.00
2018-07-20T11:14:18.466Z,51.80
2018-07-20T11:16:46.911Z,50.50
2018-07-20T11:19:15.280Z,51.20
2018-07-20T11:21:43.831Z,48.10
2018-07-20T11:24:12.243Z,50.50
2018-07-20T11:26:40.738Z,50.40
2018-07-20T11:29:09.154Z,50.00
2018-07-20T11:31:38.047Z,49.90
2018-07-20T11:34:06.539Z,50.20
2018-07-20T11:36:35.044Z,50.10
2018-07-20T11:39:03.948Z,50.00
2018-07-20T11:41:32.427Z,49.60
2018-07-20T11:44:01.054Z,49.60
2018-07-20T11:46:29.637Z,50.10
2018-07-20T11:48:58.014Z,47.50
2018-07-20T11:51:27.451Z,48.60
2018-07-20T11:53:55.810Z,49.00
2018-07-20T11:56:24.321Z,47.50
2018-07-20T11:58:52.760Z,46.10
2018-07-20T12:01:22.158Z,48.90
2018-07-20T12:03:50.752Z,49.90
2018-07-20T12:06:19.199Z,49.40
2018-07-20T12:08:48.140Z,49.40
2018-07-20T12:11:16.695Z,49.40
2018-07-20T12:16:13.251Z,50.20
2018-07-20T12:18:41.654Z,50.50
2018-07-20T12:21:10.207Z,50.40
2018-07-20T12:23:38.583Z,50.80
2018-07-20T12:26:07.159Z,51.80
2018-07-20T12:31:03.807Z,48.60
2018-07-20T12:33:32.167Z,51.20
2018-07-20T12:36:00.543Z,51.00
2018-07-20T12:38:28.835Z,51.90
2018-07-20T12:40:58.299Z,49.90
2018-07-20T12:43:26.778Z,49.40
2018-07-20T12:45:55.222Z,50.20
2018-07-20T12:48:23.690Z,49.50
2018-07-20T12:50:53.131Z,49.60
2018-07-20T12:53:21.607Z,50.20
2018-07-20T12:55:50.073Z,50.30
2018-07-20T12:58:18.885Z,50.00
2018-07-20T13:00:47.574Z,51.60
2018-07-20T13:03:15.939Z,53.20
2018-07-20T13:05:44.382Z,52.80
2018-07-20T13:08:12.719Z,51.20
2018-07-20T13:10:42.469Z,50.60
2018-07-20T13:13:10.919Z,50.00
2018-07-20T13:15:39.440Z,50.20
2018-07-20T13:18:07.939Z,49.30
2018-07-20T13:20:37.506Z,46.80
2018-07-20T13:23:05.920Z,49.20
2018-07-20T13:25:34.311Z,49.70
2018-07-20T13:28:02.760Z,50.00
2018-07-20T13:30:32.263Z,49.30
2018-07-20T13:33:00.705Z,50.30
2018-07-20T13:35:29.575Z,50.50
2018-07-20T13:37:58.017Z,49.00
2018-07-20T13:40:26.486Z,49.20
2018-07-20T13:42:54.889Z,49.80
2018-07-20T13:45:23.392Z,49.10
2018-07-20T13:47:52.053Z,47.70
2018-07-20T13:50:21.373Z,48.60
2018-07-20T13:52:50.599Z,46.90
2018-07-20T13:55:19.703Z,48.30
2018-07-20T13:57:49.192Z,48.70
2018-07-20T14:00:17.897Z,48.80
2018-07-20T14:02:46.314Z,47.40
2018-07-20T14:05:14.675Z,47.60
2018-07-20T14:07:43.565Z,45.60
2018-07-20T14:10:12.016Z,48.20
2018-07-20T14:12:40.448Z,48.20
2018-07-20T14:15:09.269Z,47.20
2018-07-20T14:17:37.770Z,46.50
2018-07-20T14:20:06.285Z,46.40
2018-07-20T14:22:35.047Z,48.60
2018-07-20T14:25:03.565Z,48.30
2018-07-20T14:27:32.056Z,45.10
2018-07-20T14:30:00.502Z,47.40
2018-07-20T14:32:28.861Z,49.00
2018-07-20T14:34:57.297Z,49.70
2018-07-20T14:37:25.725Z,49.90
2018-07-20T14:41:19.204Z,50.40
2018-07-20T14:43:47.700Z,48.40
2018-07-20T14:46:16.469Z,50.30
2018-07-20T14:48:44.949Z,51.10
2018-07-20T14:51:13.411Z,50.50
2018-07-20T14:53:42.136Z,50.10
2018-07-20T14:56:10.581Z,46.20
2018-07-20T14:58:39.144Z,46.80
2018-07-20T15:01:07.939Z,46.80
2018-07-20T15:03:36.386Z,47.70
2018-07-20T15:06:04.843Z,48.20
2018-07-20T15:08:33.365Z,47.50
2018-07-20T15:11:01.907Z,46.70
2018-07-20T15:13:30.382Z,48.10
2018-07-20T15:15:59.458Z,47.50
2018-07-20T15:18:27.968Z,47.50
2018-07-20T15:20:56.436Z,46.70
2018-07-20T15:23:24.895Z,47.30
2018-07-20T15:25:53.553Z,48.30
2018-07-20T15:28:22.721Z,47.20
2018-07-20T15:30:51.191Z,47.30
2018-07-20T15:33:19.953Z,45.40
2018-07-20T15:35:48.578Z,46.70
2018-07-20T15:38:17.109Z,48.30
2018-07-20T15:40:45.731Z,44.90
2018-07-20T15:43:14.225Z,43.90
2018-07-20T15:45:51.881Z,45.20
2018-07-20T15:48:11.245Z,46.40
2018-07-20T15:50:39.648Z,46.40
2018-07-20T15:54:37.421Z,45.50
2018-07-20T15:57:05.902Z,45.80
2018-07-20T15:59:34.390Z,45.90
2018-07-20T16:02:03.029Z,46.10
2018-07-20T16:04:31.487Z,46.90
2018-07-20T16:07:00.791Z,45.30
2018-07-20T16:09:29.473Z,46.10
2018-07-20T16:11:58.548Z,47.60
2018-07-20T16:14:27.063Z,48.80
2018-07-20T16:16:55.427Z,47.70
2018-07-20T16:19:23.834Z,47.80
2018-07-20T16:21:52.308Z,50.10
2018-07-20T16:24:20.769Z,50.80
2018-07-20T16:26:49.181Z,50.10
2018-07-20T16:31:45.633Z,49.80
2018-07-20T16:34:14.140Z,53.10
2018-07-20T16:36:42.768Z,54.30
2018-07-20T16:39:11.534Z,52.80
2018-07-20T16:41:39.926Z,51.60
2018-07-20T16:44:08.387Z,52.40
2018-07-20T16:46:36.783Z,54.10
2018-07-20T16:49:05.174Z,55.40
2018-07-20T16:51:33.608Z,56.70
2018-07-20T16:54:03.309Z,58.00
2018-07-20T16:56:31.715Z,59.60
2018-07-20T16:59:00.191Z,59.10
2018-07-20T17:01:28.601Z,59.10
2018-07-20T17:03:57.949Z,62.10
2018-07-20T17:06:26.397Z,61.20
2018-07-20T17:08:54.894Z,60.20
2018-07-20T17:11:23.353Z,60.90
2018-07-20T17:13:51.814Z,60.40
2018-07-20T17:16:20.922Z,59.30
2018-07-20T17:18:49.794Z,58.80
2018-07-20T17:21:18.294Z,57.20
2018-07-20T17:23:46.879Z,55.40
2018-07-20T17:26:15.304Z,54.00
2018-07-20T17:28:43.742Z,54.00
2018-07-20T17:31:12.175Z,53.50
2018-07-20T17:35:05.510Z,54.00
2018-07-20T17:37:34.012Z,54.00
2018-07-20T17:40:02.708Z,54.20
2018-07-20T17:42:31.166Z,54.50
2018-07-20T17:44:59.732Z,54.50
2018-07-20T17:47:28.182Z,54.80
2018-07-20T17:49:56.804Z,55.20
2018-07-20T17:52:25.288Z,55.40
2018-07-20T17:54:53.850Z,55.20
2018-07-20T17:57:22.251Z,55.00
2018-07-20T17:59:51.443Z,55.00
2018-07-20T18:02:22.152Z,55.10
2018-07-20T18:04:51.263Z,54.80
2018-07-20T18:07:19.698Z,55.30
2018-07-20T18:09:48.220Z,54.20
2018-07-20T18:12:16.724Z,54.10
2018-07-20T18:14:45.097Z,54.20
2018-07-20T18:17:13.602Z,55.10
2018-07-20T18:19:42.060Z,55.40
2018-07-20T18:22:10.489Z,55.40
2018-07-20T18:24:39.367Z,55.80
2018-07-20T18:27:07.801Z,55.60
2018-07-20T18:29:36.327Z,55.80
2018-07-20T18:32:05.094Z,56.00
2018-07-20T18:34:33.604Z,56.30
2018-07-20T18:37:01.938Z,56.70
2018-07-20T18:39:30.385Z,57.30
2018-07-20T18:41:58.727Z,57.30
2018-07-20T18:44:27.130Z,57.40
2018-07-20T18:46:55.458Z,58.00
2018-07-20T18:49:23.900Z,58.30
2018-07-20T18:51:52.992Z,58.50
2018-07-20T18:54:22.296Z,58.70
2018-07-20T18:56:51.294Z,59.40
2018-07-20T18:59:19.771Z,59.60
2018-07-20T19:01:48.280Z,60.00
2018-07-20T19:04:16.714Z,59.80
2018-07-20T19:06:45.134Z,59.80
2018-07-20T19:09:13.534Z,59.00
2018-07-20T19:11:41.944Z,59.60
2018-07-20T19:14:10.433Z,60.00
2018-07-20T19:16:38.931Z,60.00
2018-07-20T19:19:07.753Z,60.20
2018-07-20T19:21:36.166Z,60.40
2018-07-20T19:24:04.647Z,61.00
2018-07-20T19:26:33.383Z,60.90
2018-07-20T19:29:01.789Z,61.20
2018-07-20T19:31:30.184Z,61.40
2018-07-20T19:33:59.104Z,61.20
2018-07-20T19:36:28.406Z,61.50
2018-07-20T19:38:57.582Z,61.40
2018-07-20T19:41:25.924Z,61.70
2018-07-20T19:43:54.357Z,61.80
2018-07-20T19:46:23.132Z,62.00
2018-07-20T19:48:53.014Z,61.50
2018-07-20T19:51:22.163Z,61.60
2018-07-20T19:53:50.929Z,61.60
2018-07-20T19:56:19.351Z,61.30
2018-07-20T19:58:47.851Z,61.90
2018-07-20T20:01:16.438Z,61.20
2018-07-20T20:03:44.988Z,60.00
2018-07-20T20:06:13.436Z,60.40
2018-07-20T20:08:41.860Z,60.60
2018-07-20T20:11:10.802Z,61.90
2018-07-20T20:13:39.283Z,60.70
2018-07-20T20:16:07.669Z,61.20
2018-07-20T20:18:36.202Z,60.80
2018-07-20T20:21:04.702Z,61.30
2018-07-20T20:23:33.099Z,61.60
2018-07-20T20:26:01.545Z,61.00
2018-07-20T20:28:29.952Z,61.00
2018-07-20T20:30:58.439Z,60.30
2018-07-20T20:33:26.928Z,60.30
2018-07-20T20:35:55.356Z,60.30
2018-07-20T20:38:23.980Z,60.00
2018-07-20T20:40:53.203Z,59.90
2018-07-20T20:43:22.416Z,59.90
2018-07-20T20:45:51.452Z,60.60
2018-07-20T20:48:20.429Z,60.00
2018-07-20T20:50:49.054Z,59.50
2018-07-20T20:53:17.544Z,60.10
2018-07-20T20:55:45.917Z,60.00
2018-07-20T20:58:14.486Z,60.50
2018-07-20T21:00:42.945Z,60.60
2018-07-20T21:03:11.401Z,60.90
2018-07-20T21:05:39.816Z,60.70
2018-07-20T21:08:08.598Z,60.10
2018-07-20T21:10:37.170Z,59.70
2018-07-20T21:13:05.797Z,59.40
2018-07-20T21:15:34.244Z,59.70
2018-07-20T21:18:03.026Z,60.00
2018-07-20T21:20:31.515Z,60.00
2018-07-20T21:22:59.960Z,59.90
2018-07-20T21:25:28.793Z,59.90
2018-07-20T21:27:57.395Z,60.10
2018-07-20T21:30:25.936Z,60.30
2018-07-20T21:32:54.388Z,60.80
2018-07-20T21:35:23.133Z,61.30
2018-07-20T21:37:52.277Z,61.80
2018-07-20T21:40:20.742Z,62.30
2018-07-20T21:42:49.343Z,63.00
2018-07-20T21:45:17.727Z,63.20
2018-07-20T21:47:46.261Z,63.20
2018-07-20T21:50:14.989Z,63.50
2018-07-20T21:52:43.466Z,63.30
2018-07-20T21:55:11.935Z,63.60
2018-07-20T21:57:40.466Z,64.00
2018-07-20T22:00:13.599Z,64.10
2018-07-20T22:02:41.992Z,62.70
2018-07-20T22:05:10.794Z,61.10
2018-07-20T22:07:39.137Z,62.00
2018-07-20T22:10:08.140Z,63.00
2018-07-20T22:12:36.935Z,63.20
2018-07-20T22:15:06.214Z,62.70
2018-07-20T22:17:34.759Z,62.60
2018-07-20T22:20:03.471Z,61.20
2018-07-20T22:22:32.233Z,61.70
2018-07-20T22:25:00.587Z,60.10
2018-07-20T22:27:29.024Z,60.90
2018-07-20T22:29:57.459Z,61.50
2018-07-20T22:32:26.095Z,60.90
2018-07-20T22:34:54.482Z,61.20
2018-07-20T22:37:23.971Z,61.30
2018-07-20T22:39:52.983Z,61.60
2018-07-20T22:42:22.084Z,62.00
2018-07-20T22:44:50.476Z,62.10
2018-07-20T22:47:19.497Z,61.80
2018-07-20T22:49:47.899Z,61.60
2018-07-20T22:52:16.736Z,61.60
2018-07-20T22:54:45.394Z,61.70
2018-07-20T22:57:13.836Z,62.00
2018-07-20T22:59:42.228Z,62.80
2018-07-20T23:02:10.703Z,62.70
2018-07-20T23:04:39.148Z,63.10
2018-07-20T23:09:35.733Z,63.50
2018-07-20T23:12:04.314Z,63.30
2018-07-20T23:14:32.687Z,63.70
2018-07-20T23:17:01.200Z,63.80
2018-07-20T23:19:29.552Z,63.90
2018-07-20T23:21:58.039Z,63.90
2018-07-20T23:24:26.454Z,64.40
2018-07-20T23:26:54.937Z,64.60
2018-07-20T23:29:23.821Z,65.90
2018-07-20T23:31:53.519Z,65.90
2018-07-20T23:34:22.021Z,66.00
2018-07-20T23:36:50.543Z,66.10
2018-07-20T23:39:18.955Z,66.80
2018-07-20T23:41:47.471Z,66.80
2018-07-20T23:44:15.988Z,67.20
2018-07-20T23:46:44.438Z,67.30
2018-07-20T23:49:12.855Z,66.60
2018-07-20T23:51:41.315Z,66.30
2018-07-20T23:54:09.724Z,66.10
2018-07-20T23:56:38.250Z,66.50
2018-07-20T23:59:06.697Z,66.60
